Time;durP1;ratioP1;P1;durP2;ratioP2;P2;SDS_P1;SDS_P2;PMS_P1;PMS_P2;Temp;Humidity;BMP_temperature;BMP_pressure;BME280_temperature;BME280_humidity;BME280_pressure;Samples;Min_cycle;Max_cycle;Signal;HPM_P1;HPM_P2
2021/10/14 00:00:46;;;;;;;1.73;0.73;;;15.00;92.90;;;;;;5123984;28;20040;-72
2021/10/14 00:03:12;;;;;;;0.60;0.57;;;15.00;92.90;;;;;;5118664;28;20034;-72
2021/10/14 00:05:38;;;;;;;4.28;1.27;;;15.10;92.90;;;;;;5118536;28;20126;-72
2021/10/14 00:08:07;;;;;;;0.80;0.70;;;15.00;92.80;;;;;;5126484;28;20011;-72
2021/10/14 00:10:32;;;;;;;0.57;0.57;;;15.00;92.80;;;;;;5120405;28;20039;-72
2021/10/14 00:12:58;;;;;;;3.55;1.00;;;15.10;92.80;;;;;;5109728;28;20028;-72
2021/10/14 00:15:28;;;;;;;1.75;0.65;;;15.10;92.80;;;;;;5117555;28;20035;-72
2021/10/14 00:17:54;;;;;;;1.98;0.90;;;15.10;92.80;;;;;;5132650;28;20039;-72
2021/10/14 00:20:20;;;;;;;3.35;1.25;;;15.10;92.80;;;;;;5123327;28;20375;-72
2021/10/14 00:22:45;;;;;;;1.88;1.00;;;15.10;92.70;;;;;;5122551;28;20024;-72
2021/10/14 00:25:11;;;;;;;2.45;1.30;;;15.10;92.70;;;;;;5111948;28;20546;-72
2021/10/14 00:27:38;;;;;;;2.10;1.30;;;15.10;92.60;;;;;;5120162;28;20023;-72
2021/10/14 00:30:04;;;;;;;1.63;1.10;;;15.20;92.60;;;;;;5116424;28;20084;-72
2021/10/14 00:32:30;;;;;;;2.17;0.85;;;15.10;92.50;;;;;;5135046;27;20030;-72
2021/10/14 00:34:55;;;;;;;2.55;1.00;;;15.10;92.50;;;;;;5121742;27;20032;-72
2021/10/14 00:37:21;;;;;;;1.48;0.85;;;15.20;92.40;;;;;;5115922;27;20042;-72
2021/10/14 00:39:47;;;;;;;0.70;0.70;;;15.20;92.40;;;;;;5126088;27;20036;-72
2021/10/14 00:42:13;;;;;;;4.18;0.82;;;15.20;92.40;;;;;;5110825;27;20105;-72
2021/10/14 00:44:46;;;;;;;2.58;0.80;;;15.10;92.40;;;;;;5093558;27;20475;-72
2021/10/14 00:47:16;;;;;;;;;;;15.20;92.40;;;;;;5095382;28;20024;-72
2021/10/14 00:49:41;;;;;;;1.25;0.47;;;15.20;92.40;;;;;;5097400;28;19977;-71
2021/10/14 00:52:07;;;;;;;4.32;1.35;;;15.10;92.50;;;;;;5108698;28;20461;-72
2021/10/14 00:54:33;;;;;;;4.38;0.50;;;15.10;92.60;;;;;;5100222;27;20113;-71
2021/10/14 00:56:59;;;;;;;15.52;0.95;;;15.10;92.70;;;;;;5103995;28;20043;-71
2021/10/14 00:59:26;;;;;;;1.42;1.00;;;15.00;92.80;;;;;;5108816;28;20036;-72
2021/10/14 01:01:51;;;;;;;1.80;0.98;;;15.00;92.90;;;;;;5096171;27;20115;-72
2021/10/14 01:04:17;;;;;;;0.55;0.55;;;15.00;92.90;;;;;;5107505;28;20116;-72
2021/10/14 01:06:43;;;;;;;0.32;0.32;;;15.00;93.00;;;;;;5112583;27;20398;-71
2021/10/14 01:09:08;;;;;;;1.55;0.40;;;15.00;93.10;;;;;;5114195;28;20035;-71
2021/10/14 01:11:34;;;;;;;3.17;1.10;;;15.00;93.20;;;;;;5097638;28;20348;-71
2021/10/14 01:14:00;;;;;;;2.92;1.00;;;15.00;93.20;;;;;;5113980;28;20036;-71
2021/10/14 01:16:25;;;;;;;6.15;1.23;;;14.90;93.20;;;;;;5099991;27;20034;-71
2021/10/14 01:18:51;;;;;;;2.60;0.73;;;15.00;93.30;;;;;;5065120;28;20040;-71
2021/10/14 01:21:17;;;;;;;0.30;0.30;;;15.00;93.30;;;;;;5054247;28;20469;-71
2021/10/14 01:23:42;;;;;;;0.82;0.80;;;14.90;93.30;;;;;;5053703;28;20050;-71
2021/10/14 01:26:08;;;;;;;2.38;1.10;;;14.90;93.30;;;;;;5057629;28;20093;-72
2021/10/14 01:28:34;;;;;;;3.17;0.77;;;14.90;93.30;;;;;;5057157;28;20033;-71
2021/10/14 01:30:59;;;;;;;0.80;0.63;;;14.90;93.40;;;;;;5064697;28;20123;-71
2021/10/14 01:33:25;;;;;;;0.50;0.50;;;15.00;93.40;;;;;;5077196;28;20060;-71
2021/10/14 01:35:51;;;;;;;8.55;1.92;;;14.90;93.40;;;;;;5070646;28;20021;-71
2021/10/14 01:38:18;;;;;;;1.52;1.10;;;14.90;93.50;;;;;;5074817;28;20036;-71
2021/10/14 01:40:44;;;;;;;1.90;0.65;;;14.90;93.50;;;;;;5071249;28;20384;-71
2021/10/14 01:43:14;;;;;;;2.30;1.17;;;14.90;93.50;;;;;;5087043;28;20369;-71
2021/10/14 01:45:40;;;;;;;0.50;0.35;;;14.90;93.50;;;;;;5079459;28;20105;-71
2021/10/14 01:48:06;;;;;;;3.00;1.08;;;14.90;93.40;;;;;;5073793;28;20024;-71
2021/10/14 01:50:32;;;;;;;3.30;0.30;;;14.90;93.40;;;;;;5074289;28;20024;-72
2021/10/14 01:52:57;;;;;;;0.43;0.35;;;15.00;93.40;;;;;;5077962;28;20369;-72
2021/10/14 01:55:23;;;;;;;1.70;0.70;;;14.90;93.40;;;;;;5077932;28;20020;-72
2021/10/14 01:57:49;;;;;;;5.40;1.42;;;14.90;93.40;;;;;;5078904;28;20039;-72
2021/10/14 02:00:14;;;;;;;1.23;0.98;;;14.90;93.30;;;;;;5075068;28;20034;-72
2021/10/14 02:02:40;;;;;;;2.47;1.10;;;15.00;93.40;;;;;;5073743;28;20361;-72
2021/10/14 02:05:07;;;;;;;3.45;0.77;;;14.90;93.60;;;;;;5072994;28;20062;-72
2021/10/14 02:07:33;;;;;;;1.25;0.95;;;14.90;93.40;;;;;;5063629;28;20028;-72
2021/10/14 02:09:58;;;;;;;1.77;0.77;;;14.90;93.40;;;;;;5065201;28;20038;-72
2021/10/14 02:12:25;;;;;;;2.92;0.68;;;14.80;93.50;;;;;;5063552;28;20398;-72
2021/10/14 02:14:51;;;;;;;0.88;0.85;;;14.80;93.50;;;;;;5070630;28;20045;-72
2021/10/14 02:17:17;;;;;;;0.30;0.30;;;14.80;93.50;;;;;;5091078;28;20040;-71
2021/10/14 02:19:42;;;;;;;1.83;1.00;;;14.80;93.50;;;;;;5112910;27;20432;-72
2021/10/14 02:22:08;;;;;;;3.92;1.33;;;14.80;93.60;;;;;;5124974;27;20074;-72
2021/10/14 02:24:34;;;;;;;0.93;0.77;;;14.80;93.60;;;;;;5121465;27;20031;-71
2021/10/14 02:26:59;;;;;;;1.17;0.80;;;14.80;93.60;;;;;;5118545;27;20024;-72
2021/10/14 02:29:25;;;;;;;0.77;0.77;;;14.80;93.60;;;;;;5116805;27;20020;-71
2021/10/14 02:31:51;;;;;;;4.80;1.00;;;14.80;93.60;;;;;;5121517;27;20096;-72
2021/10/14 02:34:16;;;;;;;1.65;0.77;;;14.80;93.60;;;;;;5119981;27;20116;-72
2021/10/14 02:36:42;;;;;;;0.73;0.60;;;14.80;93.60;;;;;;5118053;27;20027;-72
2021/10/14 02:39:08;;;;;;;0.88;0.85;;;14.70;93.60;;;;;;5110967;27;20027;-72
2021/10/14 02:41:33;;;;;;;4.00;1.27;;;14.80;93.60;;;;;;5116750;27;20036;-72
2021/10/14 02:43:59;;;;;;;2.08;1.15;;;14.80;93.60;;;;;;5123904;27;20019;-72
2021/10/14 02:46:25;;;;;;;1.45;0.65;;;14.80;93.60;;;;;;5116871;27;20137;-72
2021/10/14 02:48:51;;;;;;;3.40;1.15;;;14.80;93.50;;;;;;5119706;27;20505;-71
2021/10/14 02:51:16;;;;;;;0.40;0.40;;;14.80;93.50;;;;;;5120458;27;20030;-72
2021/10/14 02:53:42;;;;;;;1.10;1.00;;;14.80;93.50;;;;;;5121804;27;20047;-72
2021/10/14 02:56:08;;;;;;;2.50;0.95;;;14.80;93.50;;;;;;5118569;27;20024;-72
2021/10/14 02:58:33;;;;;;;1.17;0.90;;;14.80;93.50;;;;;;5116660;27;20074;-71
2021/10/14 03:01:00;;;;;;;0.80;0.63;;;14.80;93.40;;;;;;5117900;27;20463;-71
2021/10/14 03:03:26;;;;;;;2.13;0.93;;;14.80;93.40;;;;;;5116575;27;20098;-72
2021/10/14 03:05:52;;;;;;;0.73;0.73;;;14.80;93.40;;;;;;5117849;27;20110;-72
2021/10/14 03:08:17;;;;;;;3.53;1.27;;;14.80;93.40;;;;;;5128435;27;20215;-73
2021/10/14 03:10:43;;;;;;;0.50;0.50;;;14.80;93.40;;;;;;5113680;27;20538;-72
2021/10/14 03:13:09;;;;;;;6.35;1.10;;;14.80;93.40;;;;;;5121104;27;20064;-72
2021/10/14 03:15:35;;;;;;;0.95;0.63;;;14.80;93.40;;;;;;5120396;27;20038;-72
2021/10/14 03:18:00;;;;;;;2.10;0.95;;;14.80;93.40;;;;;;5122749;27;20039;-72
2021/10/14 03:20:26;;;;;;;2.33;0.90;;;14.80;93.40;;;;;;5123758;27;20039;-73
2021/10/14 03:22:51;;;;;;;0.47;0.47;;;14.80;93.40;;;;;;5129962;27;20034;-71
2021/10/14 03:25:17;;;;;;;0.73;0.40;;;14.80;93.30;;;;;;5119525;28;20421;-72
2021/10/14 03:27:43;;;;;;;2.15;0.90;;;14.80;93.30;;;;;;5126444;27;20066;-72
2021/10/14 03:30:09;;;;;;;5.95;1.27;;;14.80;93.30;;;;;;5123692;27;20039;-72
2021/10/14 03:32:34;;;;;;;0.55;0.55;;;14.80;93.30;;;;;;5112979;28;20035;-72
2021/10/14 03:35:00;;;;;;;1.30;0.95;;;14.80;93.20;;;;;;5123852;28;20038;-72
2021/10/14 03:37:25;;;;;;;4.00;1.48;;;14.80;93.20;;;;;;5124839;28;20020;-72
2021/10/14 03:39:51;;;;;;;1.13;1.05;;;14.80;93.20;;;;;;5111869;28;20130;-72
2021/10/14 03:42:17;;;;;;;3.67;1.08;;;14.90;93.10;;;;;;5128095;28;20034;-72
2021/10/14 03:44:49;;;;;;;2.03;1.20;;;14.90;93.10;;;;;;5113666;28;20028;-72
2021/10/14 03:47:14;;;;;;;3.00;1.10;;;14.90;93.10;;;;;;5122574;28;20118;-72
2021/10/14 03:49:40;;;;;;;4.40;1.35;;;15.00;93.00;;;;;;5126770;28;20157;-72
2021/10/14 03:52:05;;;;;;;1.95;1.08;;;14.90;93.00;;;;;;5115425;28;20047;-72
2021/10/14 03:54:31;;;;;;;3.55;1.10;;;14.90;93.00;;;;;;5113447;28;20398;-72
2021/10/14 03:56:57;;;;;;;2.15;0.95;;;14.90;92.90;;;;;;5123149;28;20024;-72
2021/10/14 03:59:22;;;;;;;1.80;0.65;;;14.90;92.90;;;;;;5112570;28;20055;-72
2021/10/14 04:01:48;;;;;;;1.60;0.75;;;14.90;92.90;;;;;;5125052;28;20030;-72
2021/10/14 04:04:13;;;;;;;0.73;0.73;;;14.90;92.90;;;;;;5116608;28;20032;-72
2021/10/14 04:06:39;;;;;;;1.30;1.20;;;15.00;92.90;;;;;;5130390;27;20039;-72
2021/10/14 04:09:05;;;;;;;3.92;1.77;;;14.90;92.90;;;;;;5130091;27;20039;-72
2021/10/14 04:11:30;;;;;;;2.88;1.15;;;14.90;92.90;;;;;;5124075;27;20031;-72
2021/10/14 04:13:56;;;;;;;1.20;1.10;;;14.90;92.90;;;;;;5125882;27;20024;-72
2021/10/14 04:16:22;;;;;;;4.32;0.82;;;14.90;93.00;;;;;;5115037;27;20032;-72
2021/10/14 04:18:47;;;;;;;2.22;0.88;;;14.80;93.00;;;;;;5134487;27;20119;-72
2021/10/14 04:21:13;;;;;;;1.77;1.15;;;14.80;93.10;;;;;;5121082;27;20036;-72
2021/10/14 04:23:43;;;;;;;0.85;0.73;;;14.80;93.20;;;;;;5129778;27;20162;-72
2021/10/14 04:26:10;;;;;;;7.13;1.55;;;14.80;93.20;;;;;;5133923;27;20043;-73
2021/10/14 04:28:36;;;;;;;3.83;1.25;;;14.80;93.20;;;;;;5118141;27;20027;-73
2021/10/14 04:31:04;;;;;;;1.90;0.73;;;14.80;93.20;;;;;;5133929;27;20102;-72
2021/10/14 04:33:30;;;;;;;3.70;1.33;;;14.80;93.30;;;;;;5134786;27;20045;-72
2021/10/14 04:36:00;;;;;;;0.75;0.60;;;14.80;93.30;;;;;;5117876;27;20029;-72
2021/10/14 04:38:26;;;;;;;2.70;1.10;;;14.80;93.30;;;;;;5133091;27;20031;-72
2021/10/14 04:40:51;;;;;;;7.53;1.20;;;14.80;93.30;;;;;;5129482;27;20071;-72
2021/10/14 04:43:17;;;;;;;3.15;1.02;;;14.80;93.30;;;;;;5132113;27;20067;-72
2021/10/14 04:45:43;;;;;;;2.35;1.40;;;14.80;93.30;;;;;;5131225;27;20096;-72
2021/10/14 04:48:08;;;;;;;2.47;1.55;;;14.80;93.30;;;;;;5114818;27;20028;-72
2021/10/14 04:50:34;;;;;;;2.92;1.25;;;14.80;93.30;;;;;;5125875;27;20023;-72
2021/10/14 04:53:00;;;;;;;1.45;1.20;;;14.80;93.30;;;;;;5129815;27;20020;-72
2021/10/14 04:55:25;;;;;;;1.05;0.90;;;14.80;93.30;;;;;;5134006;27;20493;-72
2021/10/14 04:57:51;;;;;;;5.88;1.50;;;14.80;93.40;;;;;;5130129;27;20023;-72
2021/10/14 05:00:16;;;;;;;2.95;1.50;;;14.80;93.40;;;;;;5119749;27;20023;-72
2021/10/14 05:02:43;;;;;;;3.92;1.77;;;14.70;93.40;;;;;;5122157;27;20439;-72
2021/10/14 05:05:08;;;;;;;3.58;1.55;;;14.80;93.40;;;;;;5123685;27;20031;-72
2021/10/14 05:07:34;;;;;;;1.63;1.27;;;14.80;93.40;;;;;;5113821;27;20026;-72
2021/10/14 05:10:00;;;;;;;1.77;1.30;;;14.80;93.40;;;;;;5116882;27;20031;-72
2021/10/14 05:12:25;;;;;;;1.55;0.98;;;14.80;93.50;;;;;;5123528;27;20039;-72
2021/10/14 05:14:51;;;;;;;3.63;1.17;;;14.80;93.40;;;;;;5111194;27;20028;-76
2021/10/14 05:17:17;;;;;;;3.80;1.25;;;14.70;93.40;;;;;;5115318;27;20040;-76
2021/10/14 05:19:42;;;;;;;2.08;1.13;;;14.80;93.50;;;;;;5112513;27;20035;-74
2021/10/14 05:22:08;;;;;;;1.42;1.17;;;14.80;93.50;;;;;;5120215;27;20516;-71
2021/10/14 05:24:34;;;;;;;2.35;0.75;;;14.80;93.50;;;;;;5121176;27;20053;-73
2021/10/14 05:26:59;;;;;;;1.10;1.00;;;14.80;93.50;;;;;;5131126;27;20027;-71
2021/10/14 05:29:25;;;;;;;1.30;1.10;;;14.80;93.50;;;;;;5115190;27;20022;-71
2021/10/14 05:31:51;;;;;;;0.73;0.73;;;14.70;93.40;;;;;;5115154;27;20410;-71
2021/10/14 05:34:16;;;;;;;1.15;1.05;;;14.70;93.40;;;;;;5111553;27;20035;-72
2021/10/14 05:36:42;;;;;;;2.85;1.60;;;14.80;93.50;;;;;;5112123;27;20027;-72
2021/10/14 05:39:07;;;;;;;1.55;1.00;;;14.80;93.50;;;;;;5110217;27;20027;-72
2021/10/14 05:41:33;;;;;;;2.20;1.48;;;14.80;93.50;;;;;;5113338;27;20036;-72
2021/10/14 05:43:59;;;;;;;2.10;1.23;;;14.80;93.50;;;;;;5113655;27;20057;-71
2021/10/14 05:46:24;;;;;;;3.58;1.45;;;14.80;93.50;;;;;;5113706;27;20020;-72
2021/10/14 05:48:50;;;;;;;5.13;1.58;;;14.80;93.50;;;;;;5124477;27;20417;-73
2021/10/14 05:51:16;;;;;;;3.38;1.75;;;14.80;93.50;;;;;;5126284;27;20027;-74
2021/10/14 05:53:41;;;;;;;1.85;1.48;;;14.80;93.60;;;;;;5125932;27;20023;-73
2021/10/14 05:56:07;;;;;;;2.85;1.50;;;14.70;93.50;;;;;;5113691;27;20024;-71
2021/10/14 05:58:33;;;;;;;1.33;1.00;;;14.80;93.60;;;;;;5116532;27;20027;-72
2021/10/14 06:00:59;;;;;;;2.35;1.42;;;14.80;93.60;;;;;;5123144;27;20047;-73
2021/10/14 06:03:24;;;;;;;3.55;1.50;;;14.80;93.70;;;;;;5120490;27;20027;-72
2021/10/14 06:05:50;;;;;;;2.30;1.55;;;14.80;93.70;;;;;;5119569;27;20072;-73
2021/10/14 06:08:15;;;;;;;1.88;1.13;;;14.80;93.70;;;;;;5116802;27;20974;-73
2021/10/14 06:10:41;;;;;;;5.13;1.70;;;14.80;93.70;;;;;;5124432;27;20031;-73
2021/10/14 06:13:07;;;;;;;2.90;1.70;;;14.80;93.70;;;;;;5117212;27;20027;-73
2021/10/14 06:15:33;;;;;;;7.28;1.70;;;14.80;93.70;;;;;;5123046;27;20030;-72
2021/10/14 06:17:59;;;;;;;4.32;1.35;;;14.80;93.80;;;;;;5110939;27;20055;-73
2021/10/14 06:20:25;;;;;;;2.30;1.70;;;14.80;93.80;;;;;;5109620;27;20097;-74
2021/10/14 06:22:53;;;;;;;4.20;1.83;;;14.80;93.80;;;;;;5102782;27;20125;-74
2021/10/14 06:25:19;;;;;;;4.43;2.10;;;14.80;93.80;;;;;;5114554;27;20059;-72
2021/10/14 06:27:44;;;;;;;8.23;2.53;;;14.80;93.80;;;;;;5106899;27;20068;-72
2021/10/14 06:30:10;;;;;;;6.90;2.08;;;14.80;93.80;;;;;;5102985;27;20062;-73
2021/10/14 06:32:36;;;;;;;4.57;1.63;;;14.80;93.80;;;;;;5108087;27;20102;-73
2021/10/14 06:35:02;;;;;;;1.25;1.00;;;14.80;93.80;;;;;;5112959;27;20047;-79
2021/10/14 06:37:27;;;;;;;2.20;1.33;;;14.80;93.70;;;;;;5108799;27;20019;-73
2021/10/14 06:39:53;;;;;;;7.05;2.05;;;14.80;93.70;;;;;;5102042;28;20023;-73
2021/10/14 06:42:19;;;;;;;2.00;1.17;;;14.90;93.80;;;;;;5109963;27;20545;-73
2021/10/14 06:44:44;;;;;;;5.90;1.60;;;14.90;93.80;;;;;;5119398;27;20019;-73
2021/10/14 06:47:10;;;;;;;7.03;2.55;;;14.90;93.80;;;;;;5130565;27;20466;-73
2021/10/14 06:49:35;;;;;;;4.78;1.70;;;14.90;93.80;;;;;;5117286;27;20020;-72
2021/10/14 06:52:01;;;;;;;5.32;1.63;;;14.90;93.80;;;;;;5119880;27;20062;-72
2021/10/14 06:54:27;;;;;;;2.05;1.38;;;14.90;93.80;;;;;;5113504;27;20049;-72
2021/10/14 06:56:53;;;;;;;3.15;2.53;;;14.90;93.80;;;;;;5115888;27;20122;-73
2021/10/14 06:59:19;;;;;;;5.60;2.00;;;14.80;93.90;;;;;;5120801;27;20470;-73
2021/10/14 07:01:44;;;;;;;3.22;2.03;;;14.80;93.90;;;;;;5118338;27;20547;-73
2021/10/14 07:04:10;;;;;;;3.60;2.25;;;14.90;94.00;;;;;;5122413;27;20034;-73
2021/10/14 07:06:36;;;;;;;7.55;2.97;;;14.80;94.00;;;;;;5120311;27;20035;-73
2021/10/14 07:09:02;;;;;;;4.20;2.15;;;14.80;94.10;;;;;;5112277;27;20028;-73
2021/10/14 07:11:32;;;;;;;5.95;2.72;;;14.80;94.20;;;;;;5125443;27;20023;-73
2021/10/14 07:13:58;;;;;;;3.63;1.50;;;14.80;94.20;;;;;;5116648;27;20031;-72
2021/10/14 07:16:24;;;;;;;6.82;2.85;;;14.80;94.30;;;;;;5119666;27;20024;-73
2021/10/14 07:18:49;;;;;;;5.95;2.65;;;14.80;94.30;;;;;;5107342;28;20442;-73
2021/10/14 07:21:15;;;;;;;7.63;3.00;;;14.70;94.30;;;;;;5115012;27;20051;-73
2021/10/14 07:23:40;;;;;;;4.78;2.97;;;14.80;94.30;;;;;;5119654;27;20027;-72
2021/10/14 07:26:06;;;;;;;8.95;4.22;;;14.70;94.30;;;;;;5114840;27;20114;-73
2021/10/14 07:28:32;;;;;;;6.10;3.13;;;14.70;94.30;;;;;;5119911;27;20145;-73
2021/10/14 07:30:57;;;;;;;6.22;3.40;;;14.70;94.30;;;;;;5111653;28;20035;-73
2021/10/14 07:33:23;;;;;;;5.13;2.95;;;14.70;94.20;;;;;;5109215;28;20032;-73
2021/10/14 07:35:49;;;;;;;9.95;3.22;;;14.70;94.20;;;;;;5118892;28;20026;-72
2021/10/14 07:38:14;;;;;;;9.73;3.20;;;14.70;94.20;;;;;;5113143;28;20570;-72
2021/10/14 07:40:42;;;;;;;5.00;2.88;;;14.70;94.10;;;;;;5114819;27;20467;-72
2021/10/14 07:43:09;;;;;;;6.35;2.90;;;14.70;94.10;;;;;;5117257;27;20394;-73
2021/10/14 07:45:35;;;;;;;5.88;2.85;;;14.70;94.00;;;;;;5127731;27;20027;-73
2021/10/14 07:48:01;;;;;;;5.18;2.83;;;14.60;93.90;;;;;;5116574;27;20031;-73
2021/10/14 07:50:27;;;;;;;5.70;2.88;;;14.70;93.90;;;;;;5128966;27;20035;-72
2021/10/14 07:52:53;;;;;;;6.82;3.63;;;14.70;93.80;;;;;;5118725;27;20465;-73
2021/10/14 07:55:19;;;;;;;5.20;2.95;;;14.70;93.70;;;;;;5135965;27;20092;-73
2021/10/14 07:57:44;;;;;;;3.00;2.20;;;14.70;93.60;;;;;;5131875;27;20110;-73
2021/10/14 08:00:11;;;;;;;4.50;2.58;;;14.70;93.50;;;;;;5116739;27;20123;-72
2021/10/14 08:02:39;;;;;;;5.80;3.03;;;14.70;93.50;;;;;;5116756;27;20039;-72
2021/10/14 08:05:05;;;;;;;2.92;1.73;;;14.70;93.40;;;;;;5127731;27;20024;-72
2021/10/14 08:07:31;;;;;;;6.47;2.72;;;14.70;93.30;;;;;;5125716;27;20055;-72
2021/10/14 08:09:57;;;;;;;3.08;1.80;;;14.70;93.30;;;;;;5133775;27;20467;-73
2021/10/14 08:12:23;;;;;;;5.53;2.60;;;14.70;93.30;;;;;;5134691;27;20106;-72
2021/10/14 08:14:49;;;;;;;7.20;2.67;;;14.70;93.20;;;;;;5119740;27;20127;-73
2021/10/14 08:17:15;;;;;;;3.63;2.45;;;14.70;93.10;;;;;;5134968;27;20050;-72
2021/10/14 08:19:41;;;;;;;2.95;2.17;;;14.80;93.10;;;;;;5134749;27;20039;-79
2021/10/14 08:22:07;;;;;;;10.13;3.42;;;14.80;93.10;;;;;;5118424;27;20035;-72
2021/10/14 08:24:35;;;;;;;9.88;4.55;;;14.70;93.00;;;;;;5132664;27;20132;-72
2021/10/14 08:27:02;;;;;;;4.82;2.72;;;14.80;93.00;;;;;;5104625;27;20028;-72
2021/10/14 08:29:27;;;;;;;4.00;2.33;;;14.80;92.90;;;;;;5132641;27;20370;-72
2021/10/14 08:31:53;;;;;;;5.22;2.90;;;14.80;92.90;;;;;;5134653;27;20030;-72
2021/10/14 08:34:19;;;;;;;3.30;2.08;;;14.80;92.80;;;;;;5126052;27;20090;-72
2021/10/14 08:36:44;;;;;;;7.07;3.65;;;14.80;92.70;;;;;;5120717;27;20474;-72
2021/10/14 08:39:10;;;;;;;8.52;2.90;;;14.80;92.80;;;;;;5120957;27;20046;-72
2021/10/14 08:41:36;;;;;;;5.72;3.30;;;14.80;92.70;;;;;;5114731;27;20379;-72
2021/10/14 08:44:02;;;;;;;4.80;2.80;;;14.80;92.70;;;;;;5132118;27;20027;-72
2021/10/14 08:46:29;;;;;;;4.15;2.58;;;14.80;92.70;;;;;;5128413;27;20474;-72
2021/10/14 08:48:55;;;;;;;8.82;3.58;;;14.80;92.70;;;;;;5110467;27;20023;-72
2021/10/14 08:51:21;;;;;;;9.43;3.95;;;14.80;92.70;;;;;;5132597;27;20023;-72
2021/10/14 08:53:47;;;;;;;4.18;2.13;;;14.80;92.70;;;;;;5117577;27;20051;-72
2021/10/14 08:56:12;;;;;;;6.60;3.28;;;14.80;92.70;;;;;;5121452;27;20032;-72
2021/10/14 08:58:38;;;;;;;4.72;2.17;;;14.70;92.60;;;;;;5133866;27;20518;-72
2021/10/14 09:01:08;;;;;;;2.17;1.48;;;14.80;92.60;;;;;;5115894;27;20036;-72
2021/10/14 09:03:36;;;;;;;3.63;2.05;;;14.80;92.70;;;;;;5120629;27;20031;-72
2021/10/14 09:06:07;;;;;;;4.22;2.40;;;14.80;92.60;;;;;;5130548;27;20087;-72
2021/10/14 09:08:47;;;;;;;5.82;2.95;;;14.80;92.60;;;;;;5128611;27;20020;-72
2021/10/14 09:11:16;;;;;;;12.60;2.38;;;14.70;92.50;;;;;;5115142;27;20031;-72
2021/10/14 09:14:09;;;;;;;3.17;2.15;;;14.80;92.50;;;;;;5118428;27;20027;-72
2021/10/14 09:16:40;;;;;;;5.93;2.88;;;14.80;92.50;;;;;;5114087;27;20470;-71
2021/10/14 09:19:14;;;;;;;4.72;2.63;;;14.80;92.90;;;;;;5115941;27;20122;-72
2021/10/14 09:21:43;;;;;;;4.53;2.88;;;14.80;92.60;;;;;;5115484;27;20043;-72
2021/10/14 09:24:28;;;;;;;11.13;3.22;;;14.80;92.70;;;;;;5126408;27;20101;-72
2021/10/14 09:26:55;;;;;;;3.95;2.42;;;14.80;92.70;;;;;;5113597;27;20036;-72
2021/10/14 09:29:23;;;;;;;2.83;2.17;;;14.80;92.80;;;;;;5126607;27;20073;-72
2021/10/14 09:31:59;;;;;;;5.28;2.95;;;14.80;92.80;;;;;;5113854;28;20027;-72
2021/10/14 09:34:32;;;;;;;4.70;2.28;;;14.80;92.80;;;;;;5120120;27;20455;-72
2021/10/14 09:37:01;;;;;;;6.40;2.70;;;14.90;92.80;;;;;;5121402;27;20070;-72
2021/10/14 09:39:27;;;;;;;7.00;2.65;;;14.80;92.70;;;;;;5106367;27;20049;-72
2021/10/14 09:41:54;;;;;;;4.32;2.65;;;14.80;92.80;;;;;;5116869;27;20119;-72
2021/10/14 09:44:20;;;;;;;3.30;1.52;;;14.80;92.70;;;;;;5122693;27;20035;-75
2021/10/14 09:46:56;;;;;;;8.98;2.28;;;14.90;92.70;;;;;;5124231;27;20031;-76
2021/10/14 09:49:31;;;;;;;4.55;2.47;;;14.90;92.60;;;;;;5117417;27;20036;-76
2021/10/14 09:52:00;;;;;;;9.23;2.97;;;15.00;92.50;;;;;;5111914;27;20336;-76
2021/10/14 09:54:31;;;;;;;4.57;2.58;;;14.90;92.40;;;;;;5114090;27;20073;-76
2021/10/14 09:56:58;;;;;;;7.38;2.70;;;14.90;92.40;;;;;;5106605;28;20066;-76
2021/10/14 09:59:24;;;;;;;4.97;2.70;;;14.90;92.30;;;;;;5112862;27;20089;-77
2021/10/14 10:01:54;;;;;;;5.50;3.50;;;15.00;92.30;;;;;;5108334;27;20489;-77
2021/10/14 10:04:25;;;;;;;5.47;3.13;;;14.90;92.20;;;;;;5127975;27;20027;-77
2021/10/14 10:06:54;;;;;;;5.82;3.40;;;14.90;92.10;;;;;;5122204;27;20034;-77
2021/10/14 10:09:21;;;;;;;9.25;3.33;;;14.90;92.00;;;;;;5109717;27;20153;-77
2021/10/14 10:11:50;;;;;;;6.00;2.50;;;14.90;92.00;;;;;;5124066;27;20062;-76
2021/10/14 10:14:19;;;;;;;4.88;2.85;;;14.90;92.30;;;;;;5109432;27;20079;-78
2021/10/14 10:16:56;;;;;;;4.50;2.38;;;14.90;92.00;;;;;;5113902;27;20031;-75
2021/10/14 10:19:40;;;;;;;7.28;3.45;;;14.90;91.90;;;;;;5127251;27;20042;-75
2021/10/14 10:22:06;;;;;;;6.65;2.95;;;15.00;91.90;;;;;;5116828;27;20031;-76
2021/10/14 10:24:34;;;;;;;7.85;3.30;;;15.00;91.90;;;;;;5115919;27;20420;-75
2021/10/14 10:27:01;;;;;;;6.03;3.33;;;15.00;91.90;;;;;;5106480;27;20036;-75
2021/10/14 10:29:27;;;;;;;3.47;2.28;;;15.00;91.90;;;;;;5098355;28;20023;-75
2021/10/14 10:31:53;;;;;;;4.93;3.20;;;15.10;91.90;;;;;;5105967;27;20161;-75
2021/10/14 10:34:41;;;;;;;5.07;2.85;;;15.00;91.90;;;;;;5107596;27;20039;-75
2021/10/14 10:37:25;;;;;;;6.45;3.22;;;15.10;91.90;;;;;;5109138;27;20488;-76
2021/10/14 10:39:57;;;;;;;3.45;2.17;;;15.20;91.80;;;;;;5111137;27;20131;-74
2021/10/14 10:42:29;;;;;;;9.68;4.03;;;15.20;91.80;;;;;;5125154;27;20027;-75
2021/10/14 10:45:07;;;;;;;4.65;2.72;;;15.20;91.80;;;;;;5100300;27;20070;-75
2021/10/14 10:47:54;;;;;;;6.32;2.92;;;15.20;91.70;;;;;;5100645;27;20088;-75
2021/10/14 10:50:24;;;;;;;7.30;3.30;;;15.20;91.80;;;;;;5122746;27;20371;-72
2021/10/14 10:53:13;;;;;;;3.25;1.85;;;15.30;91.80;;;;;;5112810;27;20036;-73
2021/10/14 10:55:59;;;;;;;7.68;2.88;;;15.30;91.80;;;;;;5120000;27;20081;-72
2021/10/14 10:58:31;;;;;;;7.82;3.47;;;15.30;91.70;;;;;;5125178;27;20055;-75
2021/10/14 11:00:57;;;;;;;2.97;1.90;;;15.30;91.60;;;;;;5113451;27;20035;-72
2021/10/14 11:03:24;;;;;;;6.22;4.03;;;15.30;91.60;;;;;;5110193;28;20612;-73
2021/10/14 11:05:56;;;;;;;7.55;2.42;;;15.30;91.60;;;;;;5114205;27;20037;-73
2021/10/14 11:08:26;;;;;;;4.80;2.95;;;15.30;91.50;;;;;;5124132;27;20032;-73
2021/10/14 11:10:58;;;;;;;4.78;2.17;;;15.30;91.50;;;;;;5130198;27;20032;-72
2021/10/14 11:13:29;;;;;;;3.22;2.05;;;15.30;91.50;;;;;;5127984;27;20421;-73
2021/10/14 11:15:56;;;;;;;4.90;2.88;;;15.30;91.50;;;;;;5106429;27;20084;-73
2021/10/14 11:18:27;;;;;;;5.82;2.40;;;15.40;91.50;;;;;;5101568;27;20050;-77
2021/10/14 11:20:56;;;;;;;6.07;2.47;;;15.40;91.50;;;;;;5112495;27;20036;-76
2021/10/14 11:23:30;;;;;;;5.57;2.33;;;15.40;91.40;;;;;;5114774;27;20107;-76
2021/10/14 11:26:03;;;;;;;5.03;2.53;;;15.50;91.50;;;;;;5109700;27;20479;-73
2021/10/14 11:28:29;;;;;;;2.43;1.80;;;15.50;91.50;;;;;;5105189;27;20386;-73
2021/10/14 11:30:58;;;;;;;3.53;2.33;;;15.50;91.60;;;;;;5107524;28;20042;-73
2021/10/14 11:33:42;;;;;;;5.40;2.38;;;15.60;91.50;;;;;;5103798;28;20054;-73
2021/10/14 11:36:08;;;;;;;5.15;2.35;;;15.60;91.50;;;;;;5106215;28;20028;-73
2021/10/14 11:38:34;;;;;;;4.97;1.65;;;15.60;91.30;;;;;;5114422;28;20383;-73
2021/10/14 11:41:01;;;;;;;5.45;2.05;;;15.60;91.20;;;;;;5109201;28;20058;-73
2021/10/14 11:43:30;;;;;;;2.70;1.63;;;15.50;91.30;;;;;;5109840;28;20030;-73
2021/10/14 11:45:57;;;;;;;2.38;1.50;;;15.50;91.50;;;;;;5107786;28;20097;-73
2021/10/14 11:48:32;;;;;;;5.88;1.85;;;15.60;91.30;;;;;;5123035;28;20034;-73
2021/10/14 11:51:10;;;;;;;3.10;1.48;;;15.60;91.30;;;;;;5105983;28;20379;-73
2021/10/14 11:53:38;;;;;;;4.72;1.60;;;15.60;91.30;;;;;;5116135;28;20035;-73
2021/10/14 11:56:06;;;;;;;4.63;2.05;;;15.70;91.20;;;;;;5115663;28;20041;-73
2021/10/14 11:58:33;;;;;;;4.88;1.60;;;15.70;91.10;;;;;;5108269;28;20103;-73
2021/10/14 12:01:05;;;;;;;6.22;1.63;;;15.70;91.20;;;;;;5124809;28;20490;-73
2021/10/14 12:03:33;;;;;;;3.22;1.65;;;15.70;91.20;;;;;;5116158;28;20032;-73
2021/10/14 12:05:59;;;;;;;4.82;1.73;;;15.70;91.10;;;;;;5117992;28;20035;-73
2021/10/14 12:08:25;;;;;;;4.45;1.58;;;15.80;91.10;;;;;;5116383;28;20031;-73
2021/10/14 12:10:58;;;;;;;2.78;1.27;;;15.80;91.10;;;;;;5116428;28;20036;-72
2021/10/14 12:13:31;;;;;;;2.35;1.75;;;15.80;91.00;;;;;;5117963;28;20467;-74
2021/10/14 12:16:07;;;;;;;3.25;2.00;;;15.80;91.10;;;;;;5105702;28;20063;-72
2021/10/14 12:18:35;;;;;;;5.80;1.90;;;15.90;91.00;;;;;;5115938;28;20044;-73
2021/10/14 12:21:03;;;;;;;2.75;1.63;;;15.90;90.90;;;;;;5112068;28;20048;-72
2021/10/14 12:23:30;;;;;;;4.40;1.33;;;15.90;90.90;;;;;;5123790;28;20025;-72
2021/10/14 12:26:13;;;;;;;2.47;0.93;;;15.90;90.90;;;;;;5110315;27;20031;-72
2021/10/14 12:28:43;;;;;;;2.08;1.00;;;16.00;90.90;;;;;;5119028;27;20023;-73
2021/10/14 12:31:13;;;;;;;2.45;1.52;;;16.00;90.80;;;;;;5119440;27;20493;-73
2021/10/14 12:33:40;;;;;;;4.18;1.85;;;16.00;90.70;;;;;;5129144;27;20433;-72
2021/10/14 12:36:06;;;;;;;2.20;1.50;;;16.00;90.30;;;;;;5122492;27;20110;-73
2021/10/14 12:38:39;;;;;;;1.60;1.02;;;16.00;90.30;;;;;;5121488;27;20106;-73
2021/10/14 12:41:06;;;;;;;1.40;1.00;;;16.00;90.20;;;;;;5123464;27;20058;-72
2021/10/14 12:43:36;;;;;;;1.20;0.73;;;16.00;90.20;;;;;;5129920;27;20028;-72
2021/10/14 12:46:24;;;;;;;2.10;1.15;;;16.00;90.20;;;;;;5124518;27;20118;-72
2021/10/14 12:51:24;;;;;;;5.65;1.67;;;16.00;89.90;;;;;;5127946;27;20108;-72